Time;durP1;ratioP1;P1;durP2;ratioP2;P2;SDS_P1;SDS_P2;PMS_P1;PMS_P2;Temp;Humidity;BMP_temperature;BMP_pressure;BME280_temperature;BME280_humidity;BME280_pressure;Samples;Min_cycle;Max_cycle;Signal;HPM_P1;HPM_P2
2022/06/16 00:00:47;;;;;;;14.10;12.83;;;18.40;99.90;;;;;;5060874;28;20464;-67
2022/06/16 00:03:14;;;;;;;14.97;13.67;;;18.30;99.90;;;;;;5054343;28;20966;-67
2022/06/16 00:05:44;;;;;;;14.17;12.70;;;18.30;99.90;;;;;;5056103;28;20495;-68
2022/06/16 00:08:14;;;;;;;13.60;12.50;;;18.20;99.90;;;;;;5057381;28;20506;-68
2022/06/16 00:11:16;;;;;;;15.27;13.67;;;18.20;99.90;;;;;;5058213;28;20466;-68
2022/06/16 00:13:30;;;;;;;16.87;14.40;;;18.10;99.90;;;;;;5052359;28;20456;-68
2022/06/16 00:15:59;;;;;;;14.17;13.00;;;18.00;99.90;;;;;;5065641;28;20885;-67
2022/06/16 00:18:27;;;;;;;14.00;13.10;;;18.00;99.90;;;;;;5049672;28;20947;-68
2022/06/16 00:20:54;;;;;;;15.17;13.77;;;18.00;99.90;;;;;;5055637;28;20565;-68
2022/06/16 00:23:21;;;;;;;14.60;13.37;;;17.90;99.90;;;;;;5056794;28;20467;-68
2022/06/16 00:25:48;;;;;;;15.33;14.23;;;17.80;99.90;;;;;;5057148;28;20495;-68
2022/06/16 00:28:15;;;;;;;13.77;12.70;;;17.80;99.90;;;;;;5059299;28;20554;-68
2022/06/16 00:30:43;;;;;;;13.03;12.33;;;17.80;99.90;;;;;;5058615;28;20471;-67
2022/06/16 00:33:12;;;;;;;14.13;13.17;;;17.80;99.90;;;;;;5054631;28;20469;-68
2022/06/16 00:35:39;;;;;;;14.80;13.67;;;17.70;99.90;;;;;;5056992;28;20459;-68
2022/06/16 00:38:05;;;;;;;15.30;14.10;;;17.60;99.90;;;;;;5054684;28;20550;-68
2022/06/16 00:40:32;;;;;;;14.67;13.40;;;17.60;99.90;;;;;;5057029;28;20470;-68
2022/06/16 00:43:00;;;;;;;14.40;13.40;;;17.70;99.90;;;;;;5058525;28;20462;-68
2022/06/16 00:45:47;;;;;;;15.27;13.70;;;17.70;99.90;;;;;;5057831;28;20486;-67
2022/06/16 00:48:20;;;;;;;15.10;13.63;;;17.70;99.90;;;;;;5061268;28;20550;-68
2022/06/16 00:50:50;;;;;;;14.37;13.27;;;17.60;99.90;;;;;;5053794;28;20455;-68
2022/06/16 00:53:17;;;;;;;14.00;12.87;;;17.70;99.90;;;;;;5056939;28;20492;-67
2022/06/16 00:55:44;;;;;;;14.80;13.57;;;17.70;99.90;;;;;;5058271;28;20459;-67
2022/06/16 00:58:12;;;;;;;15.83;14.23;;;17.70;99.90;;;;;;5060873;28;21041;-68
2022/06/16 01:00:44;;;;;;;16.10;14.27;;;17.70;99.90;;;;;;5053957;28;20496;-67
2022/06/16 01:03:13;;;;;;;13.57;12.77;;;17.70;99.90;;;;;;5048999;28;20474;-68
2022/06/16 01:05:42;;;;;;;14.00;12.93;;;17.70;99.90;;;;;;5052313;28;20811;-68
2022/06/16 01:08:10;;;;;;;14.50;13.40;;;17.60;99.90;;;;;;5057566;28;20497;-68
2022/06/16 01:10:44;;;;;;;14.60;13.70;;;17.60;99.90;;;;;;5054199;28;20491;-68
2022/06/16 01:13:43;;;;;;;15.27;14.13;;;17.70;99.90;;;;;;5057865;28;20464;-67
2022/06/16 01:16:21;;;;;;;15.13;13.50;;;17.80;99.90;;;;;;5053243;28;20517;-67
2022/06/16 01:18:54;;;;;;;16.30;14.93;;;17.70;99.90;;;;;;5052635;28;20482;-68
2022/06/16 01:21:32;;;;;;;16.00;14.80;;;17.80;99.90;;;;;;5054806;28;20489;-68
2022/06/16 01:24:24;;;;;;;15.03;13.93;;;17.80;99.90;;;;;;5056042;28;20538;-68
2022/06/16 01:27:35;;;;;;;16.30;14.57;;;17.80;99.90;;;;;;5047603;28;20503;-68
2022/06/16 01:30:06;;;;;;;15.30;14.20;;;17.70;99.90;;;;;;5061293;28;20958;-67
2022/06/16 01:32:45;;;;;;;14.87;13.87;;;17.70;99.90;;;;;;5054838;28;20532;-68
2022/06/16 01:35:19;;;;;;;15.20;14.00;;;17.60;99.90;;;;;;5053595;28;20474;-68
2022/06/16 01:37:56;;;;;;;15.57;14.47;;;17.60;99.90;;;;;;5052541;28;20467;-68
2022/06/16 01:40:29;;;;;;;15.23;14.23;;;17.60;99.90;;;;;;5056901;28;20459;-68
2022/06/16 01:43:01;;;;;;;14.80;13.90;;;17.60;99.90;;;;;;5056947;28;20464;-68
2022/06/16 01:45:38;;;;;;;15.13;14.13;;;17.60;99.90;;;;;;5056403;28;20985;-68
2022/06/16 01:48:09;;;;;;;14.93;13.83;;;17.60;99.90;;;;;;5059622;28;21670;-68
2022/06/16 01:50:41;;;;;;;14.87;13.87;;;17.60;99.90;;;;;;5049126;28;20459;-68
2022/06/16 01:53:14;;;;;;;14.70;13.40;;;17.60;99.90;;;;;;5062801;28;20455;-67
2022/06/16 01:55:51;;;;;;;15.00;13.90;;;17.60;99.90;;;;;;5053349;28;20545;-68
2022/06/16 01:58:22;;;;;;;14.00;12.83;;;17.60;99.90;;;;;;5055275;28;20464;-68
2022/06/16 02:00:54;;;;;;;15.77;14.27;;;17.60;99.90;;;;;;5058060;28;20470;-68
2022/06/16 02:03:26;;;;;;;16.33;14.80;;;17.60;99.90;;;;;;5056376;28;20548;-68
2022/06/16 02:05:57;;;;;;;14.70;13.50;;;17.60;99.90;;;;;;5059903;28;21036;-68
2022/06/16 02:08:27;;;;;;;14.60;13.60;;;17.50;99.90;;;;;;5049987;28;20985;-68
2022/06/16 02:10:56;;;;;;;15.57;14.57;;;17.40;99.90;;;;;;5053804;28;20471;-68
2022/06/16 02:13:29;;;;;;;14.33;13.33;;;17.50;99.90;;;;;;5057271;28;20521;-68
2022/06/16 02:16:02;;;;;;;14.63;13.43;;;17.50;99.90;;;;;;5052884;28;20472;-67
2022/06/16 02:18:31;;;;;;;15.03;14.10;;;17.50;99.90;;;;;;5058934;28;21013;-67
2022/06/16 02:21:04;;;;;;;14.93;13.73;;;17.40;99.90;;;;;;5055998;28;20826;-67
2022/06/16 02:23:31;;;;;;;15.77;14.47;;;17.40;99.90;;;;;;5057409;28;20474;-66
2022/06/16 02:26:00;;;;;;;14.73;13.53;;;17.50;99.90;;;;;;5054338;28;20479;-67
2022/06/16 02:28:28;;;;;;;15.80;14.70;;;17.40;99.90;;;;;;5056747;28;20468;-67
2022/06/16 02:31:12;;;;;;;15.43;14.40;;;17.20;99.90;;;;;;5056012;28;20452;-66
2022/06/16 02:33:51;;;;;;;15.63;14.53;;;17.30;99.90;;;;;;5048165;28;20464;-67
2022/06/16 02:36:30;;;;;;;14.90;13.77;;;17.20;99.90;;;;;;5061938;28;20466;-67
2022/06/16 02:39:09;;;;;;;15.30;14.20;;;17.10;99.90;;;;;;5048043;28;20962;-66
2022/06/16 02:41:45;;;;;;;15.40;14.20;;;17.00;99.90;;;;;;5054723;28;20477;-67
2022/06/16 02:44:21;;;;;;;15.40;14.20;;;16.90;99.90;;;;;;5052859;28;20458;-67
2022/06/16 02:46:55;;;;;;;16.60;15.40;;;16.70;99.90;;;;;;5057280;28;20932;-67
2022/06/16 02:49:32;;;;;;;16.23;14.53;;;16.60;99.90;;;;;;5049236;28;20506;-67
2022/06/16 02:52:09;;;;;;;14.33;13.23;;;16.60;99.90;;;;;;5047818;28;20460;-67
2022/06/16 02:54:44;;;;;;;15.20;14.10;;;16.40;99.90;;;;;;5056348;28;20459;-67
2022/06/16 02:57:16;;;;;;;15.77;14.47;;;16.30;99.90;;;;;;5055274;28;20966;-67
2022/06/16 02:59:47;;;;;;;15.90;13.90;;;16.20;99.90;;;;;;5055429;28;20976;-66
2022/06/16 03:02:19;;;;;;;15.40;14.00;;;16.10;99.90;;;;;;5059903;28;20553;-66
2022/06/16 03:04:49;;;;;;;15.57;13.50;;;16.00;99.90;;;;;;5054129;28;20466;-67
2022/06/16 03:07:16;;;;;;;15.83;14.47;;;16.00;99.90;;;;;;5052820;28;20544;-67
2022/06/16 03:09:43;;;;;;;16.10;15.00;;;15.90;99.90;;;;;;5055001;28;20820;-66
2022/06/16 03:12:13;;;;;;;14.80;13.90;;;15.90;99.90;;;;;;5053297;28;20510;-66
2022/06/16 03:14:41;;;;;;;16.77;15.30;;;15.80;99.90;;;;;;5052554;28;20455;-67
2022/06/16 03:17:10;;;;;;;15.57;14.33;;;15.70;99.90;;;;;;5055432;28;20826;-66
2022/06/16 03:19:39;;;;;;;16.03;14.70;;;15.60;99.90;;;;;;5057469;28;20907;-67
2022/06/16 03:22:07;;;;;;;15.57;14.23;;;15.60;99.90;;;;;;5049709;28;20459;-67
2022/06/16 03:24:33;;;;;;;14.87;13.63;;;15.60;99.90;;;;;;5054531;28;20476;-67
2022/06/16 03:27:02;;;;;;;15.70;14.40;;;15.50;99.90;;;;;;5054793;28;20487;-67
2022/06/16 03:29:30;;;;;;;15.63;14.20;;;15.40;99.90;;;;;;5055790;28;20550;-66
2022/06/16 03:31:57;;;;;;;18.73;14.83;;;15.40;99.90;;;;;;5047831;28;20455;-67
2022/06/16 03:34:25;;;;;;;14.80;13.90;;;15.30;99.90;;;;;;5048618;28;20460;-66
2022/06/16 03:36:55;;;;;;;14.20;13.40;;;15.30;99.90;;;;;;5054120;28;20518;-67
2022/06/16 03:39:22;;;;;;;15.93;14.63;;;15.30;99.90;;;;;;5055251;28;20464;-67
2022/06/16 03:41:49;;;;;;;15.20;14.10;;;15.40;99.90;;;;;;5052249;28;20837;-67
2022/06/16 03:44:15;;;;;;;15.60;14.20;;;15.40;99.90;;;;;;5052259;28;20448;-67
2022/06/16 03:46:44;;;;;;;15.70;14.50;;;15.30;99.90;;;;;;5054763;28;21010;-66
2022/06/16 03:49:12;;;;;;;15.37;14.33;;;15.40;99.90;;;;;;5050110;28;20534;-67
2022/06/16 03:51:40;;;;;;;15.93;14.87;;;15.30;99.90;;;;;;5059873;28;20462;-66
2022/06/16 03:54:08;;;;;;;16.23;14.63;;;15.30;99.90;;;;;;5057716;28;20465;-66
2022/06/16 03:56:35;;;;;;;24.40;14.93;;;15.30;99.90;;;;;;5056766;28;20478;-67
2022/06/16 03:59:02;;;;;;;15.13;14.03;;;15.20;99.90;;;;;;5058727;28;20467;-67
2022/06/16 04:01:29;;;;;;;15.07;13.97;;;15.20;99.90;;;;;;5052556;28;20470;-66
2022/06/16 04:04:03;;;;;;;14.97;13.77;;;15.20;99.90;;;;;;5030240;28;20470;-67
2022/06/16 04:06:31;;;;;;;16.00;14.57;;;15.10;99.90;;;;;;5028597;28;20483;-67
2022/06/16 04:08:59;;;;;;;15.70;14.50;;;15.20;99.90;;;;;;5029728;28;20582;-67
2022/06/16 04:11:28;;;;;;;16.07;14.07;;;15.20;99.90;;;;;;5029695;28;20447;-67
2022/06/16 04:13:57;;;;;;;16.30;14.90;;;15.20;99.90;;;;;;5031132;28;21192;-67
2022/06/16 04:16:24;;;;;;;15.80;14.30;;;15.20;99.90;;;;;;5030861;28;20477;-66
2022/06/16 04:18:51;;;;;;;15.47;14.40;;;15.10;99.90;;;;;;5031702;28;20475;-67
2022/06/16 04:21:18;;;;;;;15.90;14.57;;;15.10;99.90;;;;;;5030902;28;20535;-66
2022/06/16 04:23:45;;;;;;;15.97;14.80;;;15.10;99.90;;;;;;5029000;28;22453;-67
2022/06/16 04:26:12;;;;;;;14.93;13.83;;;15.10;99.90;;;;;;5030741;28;20525;-67
2022/06/16 04:28:40;;;;;;;15.10;14.20;;;15.00;99.90;;;;;;5029450;28;20536;-66
2022/06/16 04:31:07;;;;;;;15.87;14.47;;;15.00;99.90;;;;;;5030198;28;20653;-67
2022/06/16 04:33:34;;;;;;;16.13;14.47;;;15.10;99.90;;;;;;5030846;28;20466;-67
2022/06/16 04:36:01;;;;;;;15.93;14.50;;;15.10;99.90;;;;;;5031371;28;20467;-67
2022/06/16 04:38:28;;;;;;;16.00;14.40;;;15.00;99.90;;;;;;5030143;28;20826;-67
2022/06/16 04:40:55;;;;;;;15.33;14.23;;;15.10;99.90;;;;;;5031226;28;20493;-66
2022/06/16 04:43:22;;;;;;;15.27;14.27;;;15.10;99.90;;;;;;5030915;28;20459;-67
2022/06/16 04:45:50;;;;;;;16.00;14.73;;;15.20;99.90;;;;;;5030544;28;20987;-66
2022/06/16 04:48:17;;;;;;;16.00;14.70;;;15.20;99.90;;;;;;5030196;28;20491;-66
2022/06/16 04:50:44;;;;;;;16.83;15.60;;;15.20;99.90;;;;;;5031512;28;20463;-67
2022/06/16 04:53:11;;;;;;;16.53;14.97;;;15.30;99.90;;;;;;5029942;28;20456;-67
2022/06/16 04:55:38;;;;;;;16.07;14.50;;;15.40;99.90;;;;;;5031631;28;20463;-67
2022/06/16 04:58:06;;;;;;;17.23;16.00;;;15.40;99.90;;;;;;5030047;28;20467;-67
2022/06/16 05:00:35;;;;;;;15.20;14.13;;;15.40;99.90;;;;;;5030874;28;20479;-67
2022/06/16 05:03:04;;;;;;;16.07;14.97;;;15.50;99.90;;;;;;5029299;28;20471;-67
2022/06/16 05:05:31;;;;;;;15.47;14.30;;;15.50;99.90;;;;;;5031062;28;21096;-67
2022/06/16 05:07:58;;;;;;;15.77;14.50;;;15.50;99.90;;;;;;5028532;28;20522;-66
2022/06/16 05:10:24;;;;;;;15.17;14.27;;;15.60;99.90;;;;;;5030789;28;20534;-67
2022/06/16 05:12:51;;;;;;;16.37;15.17;;;15.60;99.90;;;;;;5029381;28;20553;-66
2022/06/16 05:15:18;;;;;;;15.33;14.33;;;15.60;99.90;;;;;;5030302;28;20985;-66
2022/06/16 05:17:45;;;;;;;15.93;14.77;;;15.80;99.90;;;;;;5030214;28;20529;-67
2022/06/16 05:20:13;;;;;;;16.30;14.63;;;15.80;99.90;;;;;;5030007;28;20818;-67
2022/06/16 05:22:41;;;;;;;16.10;14.87;;;15.90;99.90;;;;;;5030564;28;20470;-67
2022/06/16 05:25:09;;;;;;;15.70;14.73;;;15.90;99.90;;;;;;5029828;28;20624;-67
2022/06/16 05:27:35;;;;;;;15.70;14.60;;;15.90;99.90;;;;;;5030658;28;20502;-69
2022/06/16 05:30:04;;;;;;;16.17;14.97;;;16.00;99.90;;;;;;5030613;28;20471;-69
2022/06/16 05:32:30;;;;;;;16.10;14.90;;;16.10;99.90;;;;;;5030195;28;20475;-70
2022/06/16 05:34:57;;;;;;;16.53;14.97;;;16.10;99.90;;;;;;5030098;28;20456;-69
2022/06/16 05:37:25;;;;;;;15.40;14.30;;;16.20;99.90;;;;;;5030488;28;21040;-70
2022/06/16 05:39:53;;;;;;;15.60;14.60;;;16.30;99.90;;;;;;5029576;28;20614;-69
2022/06/16 05:42:20;;;;;;;16.53;15.53;;;16.40;99.90;;;;;;5027519;28;22753;-69
2022/06/16 05:44:47;;;;;;;16.10;15.10;;;16.50;99.90;;;;;;5029404;28;20464;-70
2022/06/16 05:47:14;;;;;;;17.60;16.07;;;16.60;99.90;;;;;;5028559;28;20583;-70
2022/06/16 05:49:42;;;;;;;17.27;15.97;;;16.60;99.90;;;;;;5026604;28;20513;-69
2022/06/16 05:52:11;;;;;;;16.30;15.10;;;16.80;99.90;;;;;;5029003;28;20545;-70
2022/06/16 05:54:39;;;;;;;16.47;15.27;;;16.80;99.90;;;;;;5028908;28;20881;-69
2022/06/16 05:57:07;;;;;;;17.70;16.40;;;16.90;99.90;;;;;;5027550;28;20475;-70
2022/06/16 05:59:34;;;;;;;16.77;15.40;;;16.90;99.90;;;;;;5027579;28;20470;-69
2022/06/16 06:02:01;;;;;;;18.07;16.47;;;17.00;99.90;;;;;;5037688;28;20471;-67
2022/06/16 06:04:28;;;;;;;17.33;15.60;;;17.10;99.90;;;;;;5055203;28;20455;-67
2022/06/16 06:06:55;;;;;;;17.73;15.70;;;17.10;99.90;;;;;;5031122;28;20487;-67
2022/06/16 06:18:10;;;;;;;16.33;14.80;;;17.40;99.90;;;;;;5027096;28;21156;-67
2022/06/16 06:20:37;;;;;;;17.40;16.10;;;17.50;99.90;;;;;;5026666;28;20467;-67
2022/06/16 06:23:04;;;;;;;16.27;15.37;;;17.60;99.90;;;;;;5026359;28;20965;-68
2022/06/16 06:25:31;;;;;;;17.10;15.87;;;17.60;99.90;;;;;;5028002;28;20954;-68
2022/06/16 06:28:00;;;;;;;17.73;16.13;;;17.70;99.90;;;;;;5026137;28;20898;-67
2022/06/16 06:30:29;;;;;;;17.23;16.03;;;17.80;99.90;;;;;;5025660;28;20996;-67
2022/06/16 06:32:57;;;;;;;16.60;15.40;;;17.90;99.90;;;;;;5027137;28;20471;-67
2022/06/16 06:35:24;;;;;;;16.37;15.07;;;18.00;99.90;;;;;;5025049;28;20473;-67
2022/06/16 06:37:52;;;;;;;16.17;14.80;;;18.10;99.90;;;;;;5027310;28;20814;-67
2022/06/16 06:40:22;;;;;;;16.70;15.10;;;18.20;99.90;;;;;;5026348;28;20551;-67
2022/06/16 06:42:49;;;;;;;16.73;15.30;;;18.30;99.90;;;;;;5027602;28;20478;-68
2022/06/16 06:45:19;;;;;;;16.47;15.47;;;18.30;99.90;;;;;;5026273;28;20476;-67
2022/06/16 06:47:47;;;;;;;15.97;14.97;;;18.40;99.90;;;;;;5027313;28;20905;-67
2022/06/16 06:50:20;;;;;;;15.63;14.40;;;18.50;99.90;;;;;;5026734;28;20992;-66
2022/06/16 06:52:47;;;;;;;16.43;15.30;;;18.60;99.90;;;;;;5026357;28;20958;-68
2022/06/16 06:55:14;;;;;;;15.90;14.57;;;18.60;99.90;;;;;;5027482;28;20537;-67
2022/06/16 06:57:41;;;;;;;16.10;14.90;;;18.70;99.90;;;;;;5027055;28;20479;-67
2022/06/16 07:00:09;;;;;;;17.07;15.37;;;18.80;99.90;;;;;;5027054;28;20476;-67
2022/06/16 07:02:38;;;;;;;16.50;15.10;;;18.90;99.90;;;;;;5027030;28;21266;-67
2022/06/16 07:05:06;;;;;;;17.03;15.63;;;18.90;99.90;;;;;;5026865;28;20455;-68
2022/06/16 07:07:34;;;;;;;17.10;15.50;;;19.00;99.90;;;;;;5026803;28;20506;-67
2022/06/16 07:10:02;;;;;;;16.87;15.63;;;19.10;99.90;;;;;;5026701;28;20479;-67
2022/06/16 07:12:29;;;;;;;16.60;15.40;;;19.10;99.90;;;;;;5026912;28;20559;-67
2022/06/16 07:14:55;;;;;;;16.50;15.20;;;18.80;99.90;;;;;;5027212;28;22385;-68
2022/06/16 07:17:24;;;;;;;16.73;15.43;;;18.70;99.90;;;;;;5027503;28;20469;-67
2022/06/16 07:19:53;;;;;;;15.83;14.70;;;18.60;99.90;;;;;;5026359;28;20580;-70
2022/06/16 07:22:23;;;;;;;15.60;14.50;;;18.60;99.90;;;;;;5034253;28;20462;-69
2022/06/16 07:24:50;;;;;;;15.47;14.57;;;18.70;99.90;;;;;;5051371;28;20460;-69
2022/06/16 07:27:18;;;;;;;17.30;15.67;;;18.80;99.90;;;;;;5058373;28;21005;-69
2022/06/16 07:29:49;;;;;;;16.13;14.93;;;18.90;99.90;;;;;;5057270;28;20466;-69
2022/06/16 07:32:16;;;;;;;16.00;14.77;;;18.90;99.90;;;;;;5030801;28;20944;-70
2022/06/16 07:34:44;;;;;;;15.97;14.87;;;18.80;99.90;;;;;;5030050;28;20455;-71
2022/06/16 07:37:12;;;;;;;15.80;14.67;;;18.90;99.90;;;;;;5030487;28;21654;-68
2022/06/16 07:39:39;;;;;;;15.63;14.13;;;18.90;99.90;;;;;;5029917;28;20464;-68
2022/06/16 07:42:08;;;;;;;16.07;14.70;;;18.90;99.90;;;;;;5030855;28;20894;-68
2022/06/16 07:44:35;;;;;;;15.63;14.40;;;19.00;99.90;;;;;;5030358;28;21030;-67
2022/06/16 07:47:03;;;;;;;15.20;14.30;;;19.10;99.90;;;;;;5030197;28;20460;-67
2022/06/16 07:49:30;;;;;;;15.63;14.30;;;19.20;99.90;;;;;;5030410;28;20462;-67
2022/06/16 07:51:59;;;;;;;15.07;14.10;;;19.40;99.50;;;;;;5028154;28;20799;-68
2022/06/16 07:54:28;;;;;;;15.27;14.23;;;19.50;99.30;;;;;;5028746;28;20467;-66
2022/06/16 07:56:55;;;;;;;15.17;14.10;;;19.60;98.70;;;;;;5029479;28;21015;-67
2022/06/16 07:59:22;;;;;;;15.23;14.23;;;19.80;98.90;;;;;;5028925;28;20462;-68
2022/06/16 08:01:49;;;;;;;15.80;14.70;;;20.10;97.30;;;;;;5029474;28;20472;-67
2022/06/16 08:04:16;;;;;;;15.33;14.10;;;20.60;95.50;;;;;;5028239;28;21153;-67
2022/06/16 08:06:43;;;;;;;15.77;14.63;;;20.90;94.70;;;;;;5027295;28;20475;-67
2022/06/16 08:09:11;;;;;;;14.83;13.87;;;21.50;93.10;;;;;;5038798;28;20857;-67
2022/06/16 08:14:25;;;;;;;14.60;13.33;;;22.60;90.40;;;;;;5061239;28;20520;-67
2022/06/16 08:16:52;;;;;;;14.30;13.43;;;23.20;89.00;;;;;;5032919;28;20606;-67
2022/06/16 08:19:19;;;;;;;14.40;13.70;;;23.70;85.40;;;;;;5028476;28;20483;-68
2022/06/16 08:21:45;;;;;;;14.47;13.30;;;23.90;82.60;;;;;;5029870;28;20463;-68
2022/06/16 08:24:12;;;;;;;14.50;13.60;;;24.40;78.20;;;;;;5030328;28;20460;-68
2022/06/16 08:26:42;;;;;;;13.67;12.97;;;25.10;77.10;;;;;;5032128;28;20757;-67
2022/06/16 08:29:14;;;;;;;13.80;13.10;;;25.20;69.90;;;;;;5050622;28;20491;-67
2022/06/16 08:31:41;;;;;;;14.63;13.87;;;25.70;67.60;;;;;;5044350;28;20608;-68
2022/06/16 08:34:08;;;;;;;14.77;13.60;;;25.60;69.70;;;;;;5029099;28;20551;-67
2022/06/16 08:36:35;;;;;;;13.80;12.90;;;25.70;65.80;;;;;;5029164;28;20455;-67
2022/06/16 08:39:04;;;;;;;13.80;13.00;;;25.60;64.50;;;;;;5024660;28;20476;-68
2022/06/16 08:41:37;;;;;;;13.60;12.90;;;25.70;63.30;;;;;;5029176;28;21681;-68
2022/06/16 08:44:12;;;;;;;13.90;13.10;;;25.60;61.50;;;;;;5028646;28;20999;-67
2022/06/16 08:46:42;;;;;;;13.93;13.13;;;26.10;59.40;;;;;;5029088;28;20466;-67
2022/06/16 08:49:22;;;;;;;14.60;13.90;;;25.40;59.00;;;;;;5026863;28;21123;-67
2022/06/16 08:52:02;;;;;;;13.50;12.77;;;24.70;61.50;;;;;;5024445;28;20570;-68
2022/06/16 08:54:40;;;;;;;15.30;14.30;;;25.10;61.30;;;;;;5024700;28;20471;-67
2022/06/16 08:57:13;;;;;;;14.67;13.23;;;25.90;58.40;;;;;;5027713;28;20988;-68
2022/06/16 08:59:50;;;;;;;14.00;13.10;;;25.20;57.80;;;;;;5024797;28;20479;-67
2022/06/16 09:02:24;;;;;;;13.50;12.70;;;24.80;57.00;;;;;;5027659;28;20471;-68
2022/06/16 09:04:52;;;;;;;13.63;12.93;;;25.30;55.80;;;;;;5028154;28;20858;-67
2022/06/16 09:07:37;;;;;;;13.80;13.00;;;24.70;55.10;;;;;;5025043;28;20487;-68
2022/06/16 09:10:17;;;;;;;13.53;12.77;;;24.90;55.70;;;;;;5025828;28;20506;-68
2022/06/16 09:13:04;;;;;;;14.00;13.20;;;25.30;55.50;;;;;;5013086;28;20462;-68
2022/06/16 09:15:39;;;;;;;13.27;12.43;;;25.50;54.20;;;;;;5018898;28;20464;-67
2022/06/16 09:18:22;;;;;;;14.03;13.17;;;25.50;51.20;;;;;;5023708;28;20490;-68
2022/06/16 09:20:54;;;;;;;13.27;12.60;;;24.70;51.80;;;;;;5022474;28;20688;-68
2022/06/16 09:23:48;;;;;;;13.73;12.70;;;24.40;50.60;;;;;;5026257;28;20456;-67
2022/06/16 09:26:21;;;;;;;13.30;12.70;;;25.10;52.90;;;;;;5026662;28;20479;-68
2022/06/16 09:28:53;;;;;;;13.57;12.87;;;25.40;51.50;;;;;;5030820;28;20487;-68
2022/06/16 09:31:27;;;;;;;13.67;13.07;;;26.30;50.80;;;;;;5041801;28;20467;-68
2022/06/16 09:33:59;;;;;;;13.50;12.80;;;26.80;50.00;;;;;;5040029;28;20550;-69
2022/06/16 09:36:30;;;;;;;14.40;13.67;;;27.20;51.10;;;;;;5012703;28;20459;-68
2022/06/16 09:39:02;;;;;;;13.00;12.50;;;27.50;49.90;;;;;;5048587;28;20455;-68
2022/06/16 09:44:28;;;;;;;13.70;12.67;;;28.50;49.40;;;;;;5049085;28;21040;-68
2022/06/16 09:47:02;;;;;;;14.73;13.83;;;28.10;50.40;;;;;;5030262;28;20462;-68
2022/06/16 09:49:35;;;;;;;14.47;13.47;;;28.00;50.50;;;;;;5023662;28;20503;-68
2022/06/16 09:52:07;;;;;;;13.80;13.20;;;28.30;50.60;;;;;;5023041;28;20463;-68
2022/06/16 09:54:40;;;;;;;14.90;14.17;;;27.80;50.00;;;;;;5023077;28;20472;-68
2022/06/16 09:57:12;;;;;;;14.67;13.87;;;27.20;50.80;;;;;;5022962;28;22386;-68
2022/06/16 09:59:43;;;;;;;13.90;13.20;;;26.50;50.60;;;;;;5024918;28;20954;-68
2022/06/16 10:02:18;;;;;;;14.53;13.57;;;26.70;50.00;;;;;;5022134;28;20890;-69
2022/06/16 10:04:45;;;;;;;14.23;13.50;;;27.70;49.60;;;;;;5021055;28;20525;-68
2022/06/16 10:07:19;;;;;;;14.40;13.70;;;28.30;49.60;;;;;;5021837;28;20470;-68
2022/06/16 10:09:56;;;;;;;14.27;13.20;;;27.90;48.60;;;;;;5021416;28;20580;-68
2022/06/16 10:12:32;;;;;;;13.93;13.13;;;27.50;49.20;;;;;;5022630;28;20728;-68
2022/06/16 10:15:04;;;;;;;14.37;13.37;;;27.80;49.60;;;;;;5023138;28;21036;-67
2022/06/16 10:17:34;;;;;;;14.17;13.27;;;28.30;47.70;;;;;;5022436;28;20463;-68
2022/06/16 10:20:02;;;;;;;13.90;13.00;;;27.70;47.80;;;;;;5023193;28;20492;-68
2022/06/16 10:22:31;;;;;;;13.43;12.73;;;27.20;48.20;;;;;;5019574;28;20464;-68
2022/06/16 10:25:02;;;;;;;13.93;13.23;;;27.20;49.20;;;;;;5022874;28;20456;-67
2022/06/16 10:27:35;;;;;;;13.70;13.10;;;27.70;47.80;;;;;;5021392;28;21057;-68
2022/06/16 10:30:05;;;;;;;13.87;13.17;;;27.60;49.30;;;;;;5021429;28;20491;-67
2022/06/16 10:32:40;;;;;;;14.00;13.30;;;27.00;49.20;;;;;;5022260;28;20475;-68
2022/06/16 10:35:11;;;;;;;14.03;13.13;;;26.40;50.00;;;;;;5021301;28;20466;-68
2022/06/16 10:37:42;;;;;;;14.50;13.57;;;26.40;50.30;;;;;;5019748;28;20472;-68
2022/06/16 10:40:14;;;;;;;14.57;13.53;;;26.70;51.10;;;;;;5021833;28;21123;-68
2022/06/16 10:42:46;;;;;;;13.63;12.93;;;27.50;50.20;;;;;;5021792;28;20475;-68
2022/06/16 10:45:17;;;;;;;13.33;12.53;;;28.20;48.40;;;;;;5022504;28;20932;-68
2022/06/16 10:47:50;;;;;;;14.10;13.17;;;28.40;47.10;;;;;;5022010;28;20466;-68
2022/06/16 10:50:22;;;;;;;13.17;12.57;;;29.00;46.10;;;;;;5023770;28;20761;-68
2022/06/16 10:52:52;;;;;;;14.23;13.43;;;29.00;46.30;;;;;;5022104;28;20479;-68
2022/06/16 10:55:22;;;;;;;13.83;13.03;;;28.80;46.10;;;;;;5022444;28;20762;-68
2022/06/16 10:57:58;;;;;;;13.40;12.70;;;28.90;45.30;;;;;;5019908;28;20470;-68
2022/06/16 11:00:26;;;;;;;14.50;13.50;;;29.20;45.60;;;;;;5022355;28;20467;-68
2022/06/16 11:02:59;;;;;;;13.23;12.43;;;29.30;45.20;;;;;;5021382;28;20967;-68
2022/06/16 11:05:28;;;;;;;15.10;13.90;;;28.10;45.70;;;;;;5022219;28;21219;-68
2022/06/16 11:08:06;;;;;;;14.17;13.27;;;27.30;46.20;;;;;;5022260;28;20459;-69
2022/06/16 11:10:35;;;;;;;14.13;13.23;;;27.90;45.80;;;;;;5021134;28;20887;-68
2022/06/16 11:13:02;;;;;;;13.70;13.00;;;28.30;45.70;;;;;;5022285;28;20836;-68
2022/06/16 11:15:34;;;;;;;15.23;14.00;;;28.90;45.30;;;;;;5023358;28;20462;-68
2022/06/16 11:18:05;;;;;;;15.03;14.13;;;29.70;44.70;;;;;;5022518;28;20684;-68
2022/06/16 11:20:37;;;;;;;14.33;13.73;;;30.30;42.50;;;;;;5021060;28;20948;-69
2022/06/16 11:23:19;;;;;;;14.17;13.47;;;30.30;42.50;;;;;;5024117;28;20946;-68
2022/06/16 11:25:46;;;;;;;13.93;13.07;;;30.80;42.20;;;;;;5025917;28;20499;-68
2022/06/16 11:28:20;;;;;;;14.40;13.60;;;30.10;43.00;;;;;;5020162;28;20455;-68
2022/06/16 11:30:55;;;;;;;13.77;12.87;;;30.20;44.50;;;;;;5017198;28;20917;-70
2022/06/16 11:36:22;;;;;;;14.47;13.57;;;30.40;42.70;;;;;;5042199;28;20915;-69
2022/06/16 11:38:57;;;;;;;13.37;12.63;;;29.60;42.20;;;;;;5021593;28;22994;-69
2022/06/16 11:41:25;;;;;;;14.37;13.67;;;29.90;43.40;;;;;;5018192;28;20769;-69
2022/06/16 11:44:09;;;;;;;14.47;13.47;;;29.40;44.80;;;;;;5022392;28;20549;-69
2022/06/16 11:46:44;;;;;;;14.43;13.40;;;29.40;44.30;;;;;;5006095;28;20544;-70
2022/06/16 11:49:27;;;;;;;13.37;12.60;;;29.70;42.70;;;;;;5012353;28;20537;-69
2022/06/16 11:52:03;;;;;;;14.40;13.50;;;30.50;43.30;;;;;;5012266;28;20809;-69
2022/06/16 11:54:44;;;;;;;13.73;13.00;;;31.20;41.60;;;;;;5012998;28;20976;-68
2022/06/16 11:57:22;;;;;;;14.07;13.27;;;31.20;40.60;;;;;;5010350;28;20889;-69
2022/06/16 12:00:20;;;;;;;13.33;12.63;;;31.40;41.40;;;;;;5014064;28;20592;-68
2022/06/16 12:03:19;;;;;;;13.70;13.00;;;30.90;40.60;;;;;;5044626;28;20839;-68
2022/06/16 12:06:00;;;;;;;14.60;13.57;;;31.40;39.60;;;;;;5027196;28;21307;-68
2022/06/16 12:08:43;;;;;;;14.60;13.73;;;32.10;40.60;;;;;;5020988;28;20459;-69
2022/06/16 12:11:14;;;;;;;14.10;13.40;;;32.10;41.50;;;;;;5022425;28;20455;-68
2022/06/16 12:13:51;;;;;;;13.63;12.90;;;31.60;39.80;;;;;;5024222;28;20478;-68
2022/06/16 12:16:25;;;;;;;13.10;12.40;;;30.90;41.50;;;;;;5025542;28;20484;-68
2022/06/16 12:19:02;;;;;;;13.53;12.80;;;31.30;40.30;;;;;;5025687;28;20549;-68
2022/06/16 12:21:38;;;;;;;14.27;13.50;;;31.60;40.00;;;;;;5023129;28;20466;-68
2022/06/16 12:24:14;;;;;;;14.30;13.50;;;31.80;41.00;;;;;;5025664;28;20460;-68
2022/06/16 12:26:46;;;;;;;13.73;13.13;;;32.70;38.20;;;;;;5025469;28;20467;-69
2022/06/16 12:29:23;;;;;;;14.43;13.73;;;33.20;38.30;;;;;;5025888;28;20471;-68
2022/06/16 12:31:59;;;;;;;14.50;13.80;;;33.40;37.50;;;;;;5026970;28;20467;-69
2022/06/16 12:34:34;;;;;;;14.20;13.50;;;33.30;37.80;;;;;;5049450;28;20471;-68
2022/06/16 12:37:05;;;;;;;14.73;13.93;;;33.10;37.10;;;;;;5051658;28;20463;-69
2022/06/16 12:39:37;;;;;;;13.77;13.07;;;32.60;38.30;;;;;;5053683;28;20488;-68
2022/06/16 12:42:09;;;;;;;13.90;13.20;;;33.00;37.30;;;;;;5032218;28;20590;-68
2022/06/16 12:44:42;;;;;;;13.37;12.67;;;33.40;36.80;;;;;;5024825;28;21111;-69
2022/06/16 12:47:19;;;;;;;13.87;12.60;;;33.00;36.40;;;;;;5023315;28;20462;-69
2022/06/16 12:49:52;;;;;;;14.10;13.40;;;32.60;36.40;;;;;;5025573;28;21123;-68
2022/06/16 12:52:25;;;;;;;14.10;13.30;;;33.70;35.80;;;;;;5024617;28;20527;-68
2022/06/16 12:55:00;;;;;;;14.10;13.30;;;33.90;35.10;;;;;;5020639;28;21805;-69
2022/06/16 12:57:32;;;;;;;14.17;13.37;;;33.70;36.30;;;;;;5024182;28;21281;-68
2022/06/16 13:00:04;;;;;;;13.90;13.30;;;33.80;34.80;;;;;;5023444;28;22924;-69
2022/06/16 13:02:35;;;;;;;14.20;13.33;;;34.10;35.00;;;;;;5024776;28;20475;-69
2022/06/16 13:05:08;;;;;;;14.13;13.33;;;34.20;35.00;;;;;;5023659;28;21060;-68